Flight Number: EUR3026 Duration: 11:30
Departure: Tel Aviv Ben Gurion (LLBG) at 08:00 Distance: 4920 Nm
Arrival: John F Kennedy Int'l (KJFK) at 19:30 Equipment: B777

Weather Information
Ben-Gurion International Airport, Israel (LLBG) 32-00N 034-54E 49M Feb 24, 2018 - 12:50 AM EST / 2018.02.24 0550 UTC
Wind: from the SE (140 degrees) at 5 MPH (4 KT):0
Visibility: 4 mile(s):0
Sky conditions: mostly cloudy Temperature: 57 F (14 C) Dew Point: 51 F (11 C) Relative Humidity: 82% Pressure (altimeter): 29.85 in. Hg (1011 hPa)
ob: LLBG 240550Z 14004KT 8000 SCT005 BKN008 14/11 Q1011 BECMG SCT010 cycle: 6
Sunrise: 04:15 Sunset: 15:31 (UTC)

KENNEDY INTERNATIONAL AIRPORT , NY, United States (KJFK) 40-38N 073-46W 9M Feb 24, 2018 - 12:51 AM EST / 2018.02.24 0551 UTC
Wind: from the WSW (250 degrees) at 8 MPH (7 KT):0
Visibility: 6 mile(s):0
Sky conditions: overcast Weather: mist Temperature: 42.1 F (5.6 C) Dew Point: 42.1 F (5.6 C) Relative Humidity: 100% Pressure (altimeter): 30.2 in. Hg (1022 hPa) Pressure tendency: 0.04 inches (1.5 hPa) lower than three hours ago
ob: KJFK 240551Z 25007KT 6SM BR BKN008 BKN011 BKN050 OVC160 06/06 A3020 RMK AO2 SLP225 T00560056 10056 20039 55015 cycle: 6
Sunrise: 11:38 Sunset: 22:38 (UTC)

TAF:2018/02/24 06:57 TAF KJFK 240550Z 2406/2512 25007KT 5SM BR OVC006 FM241000 27005KT P6SM BKN010 BKN030 OVC100 FM241400 31008KT P6SM FEW015 OVC080 FM241800 VRB05KT P6SM OVC080 FM242100 33004KT 5SM -DZ BR BKN025 OVC050 FM250300 05009KT 4SM -DZ BR BKN012 OVC035 FM250700 08011KT 2SM -RA BR OVC008

Previous Pireps for this route
Date Aircraft Flight time Fuel used Landing rate On time
2016-02-03A34010.29201758-289Charter
(pireps marked green are flown by you)

Route map